createdAt,value
2023-09-27T00:01:14.556Z,101663.95
2023-09-27T00:03:44.261Z,101664.02
2023-09-27T00:06:13.441Z,101663.73
2023-09-27T00:08:42.115Z,101662.15
2023-09-27T00:11:15.099Z,101661.78
2023-09-27T00:14:01.384Z,101660.81
2023-09-27T00:16:30.591Z,101667.45
2023-09-27T00:18:59.403Z,101664.78
2023-09-27T00:21:27.987Z,101668.38
2023-09-27T00:29:57.208Z,101666.11
2023-09-27T00:32:26.241Z,101664.77
2023-09-27T00:34:55.357Z,101659.34
2023-09-27T00:37:28.388Z,101658.70
2023-09-27T00:39:57.681Z,101656.48
2023-09-27T00:42:27.897Z,101656.20
2023-09-27T00:44:56.790Z,101653.39
2023-09-27T00:47:25.982Z,101651.88
2023-09-27T00:49:55.802Z,101656.27
2023-09-27T00:52:25.229Z,101657.97
2023-09-27T00:54:54.896Z,101653.69
2023-09-27T00:57:25.237Z,101652.55
2023-09-27T00:59:55.191Z,101648.17
2023-09-27T01:02:24.448Z,101646.70
2023-09-27T01:04:54.296Z,101645.25
2023-09-27T01:07:23.550Z,101647.40
2023-09-27T01:09:55.490Z,101642.56
2023-09-27T01:12:30.343Z,101644.46
2023-09-27T01:15:08.153Z,101642.13
2023-09-27T01:17:38.378Z,101642.15
2023-09-27T01:20:08.121Z,101643.14
2023-09-27T01:22:36.800Z,101639.70
2023-09-27T01:25:12.199Z,101640.48
2023-09-27T01:30:40.336Z,101637.16
2023-09-27T01:33:11.798Z,101634.90
2023-09-27T01:35:44.787Z,101639.38
2023-09-27T01:38:17.085Z,101640.73
2023-09-27T01:40:47.357Z,101638.14
2023-09-27T01:43:16.793Z,101641.90
2023-09-27T01:45:45.764Z,101639.25
2023-09-27T01:48:14.177Z,101638.66
2023-09-27T01:50:48.643Z,101639.98
2023-09-27T01:53:18.793Z,101642.48
2023-09-27T01:55:49.002Z,101639.65
2023-09-27T01:58:18.876Z,101635.77
2023-09-27T02:00:48.337Z,101631.48
2023-09-27T02:03:16.945Z,101628.40
2023-09-27T02:05:49.335Z,101629.98
2023-09-27T02:08:17.953Z,101627.34
2023-09-27T02:10:46.624Z,101626.28
2023-09-27T02:13:14.804Z,101624.96
2023-09-27T02:15:44.546Z,101626.01
2023-09-27T02:18:13.848Z,101627.35
2023-09-27T02:20:42.514Z,101631.14
2023-09-27T02:23:11.137Z,101630.00
2023-09-27T02:25:40.860Z,101627.48
2023-09-27T02:28:11.991Z,101623.60
2023-09-27T02:30:40.484Z,101623.23
2023-09-27T02:33:09.731Z,101626.46
2023-09-27T02:35:41.628Z,101629.27
2023-09-27T02:38:11.424Z,101630.12
2023-09-27T02:40:40.230Z,101629.47
2023-09-27T02:43:09.738Z,101627.84
2023-09-27T02:45:38.288Z,101627.09
2023-09-27T02:48:06.892Z,101622.90
2023-09-27T02:50:35.302Z,101616.98
2023-09-27T02:53:06.141Z,101608.94
2023-09-27T02:55:35.208Z,101615.30
2023-09-27T02:58:04.686Z,101617.24
2023-09-27T03:00:38.073Z,101614.54
2023-09-27T03:03:09.191Z,101614.02
2023-09-27T03:05:40.345Z,101618.08
2023-09-27T03:08:08.936Z,101621.35
2023-09-27T03:10:40.815Z,101621.58
2023-09-27T03:13:11.758Z,101619.77
2023-09-27T03:15:41.100Z,101620.96
2023-09-27T03:18:10.666Z,101622.11
2023-09-27T03:20:41.268Z,101620.99
2023-09-27T03:23:09.952Z,101621.15
2023-09-27T03:25:38.420Z,101618.59
2023-09-27T03:28:08.303Z,101613.14
2023-09-27T03:30:37.203Z,101614.77
2023-09-27T03:33:07.614Z,101616.38
2023-09-27T03:35:37.883Z,101615.30
2023-09-27T03:38:07.149Z,101611.85
2023-09-27T03:40:38.835Z,101609.77
2023-09-27T03:43:07.717Z,101616.80
2023-09-27T03:45:37.131Z,101620.12
2023-09-27T03:48:06.123Z,101625.59
2023-09-27T03:50:34.728Z,101623.95
2023-09-27T03:53:21.708Z,101625.14
2023-09-27T03:55:50.637Z,101620.25
2023-09-27T03:58:19.322Z,101621.98
2023-09-27T04:00:47.876Z,101620.59
2023-09-27T04:03:18.192Z,101621.92
2023-09-27T04:05:46.653Z,101624.58
2023-09-27T04:08:15.484Z,101621.61
2023-09-27T04:10:43.981Z,101624.62
2023-09-27T04:13:12.537Z,101619.25
2023-09-27T04:15:40.885Z,101624.09
2023-09-27T04:18:09.436Z,101622.20
2023-09-27T04:20:38.389Z,101618.94
2023-09-27T04:23:07.189Z,101619.84
2023-09-27T04:25:37.255Z,101618.85
2023-09-27T04:29:53.958Z,101624.90
2023-09-27T04:32:22.146Z,101624.90
2023-09-27T04:34:51.959Z,101624.77
2023-09-27T04:37:20.878Z,101622.88
2023-09-27T04:39:50.352Z,101625.29
2023-09-27T04:42:19.425Z,101624.80
2023-09-27T04:44:49.622Z,101627.48
2023-09-27T04:47:35.433Z,101624.41
2023-09-27T04:50:04.689Z,101624.31
2023-09-27T04:52:33.622Z,101626.17
2023-09-27T04:55:01.809Z,101627.91
2023-09-27T04:57:30.366Z,101625.86
2023-09-27T04:59:59.034Z,101629.35
2023-09-27T05:02:28.924Z,101632.27
2023-09-27T05:04:58.265Z,101632.23
2023-09-27T05:07:27.567Z,101634.28
2023-09-27T05:09:56.922Z,101633.70
2023-09-27T05:12:25.517Z,101635.01
2023-09-27T05:14:54.302Z,101634.63
2023-09-27T05:17:22.705Z,101634.67
2023-09-27T05:19:51.628Z,101638.02
2023-09-27T05:22:21.043Z,101638.47
2023-09-27T05:24:49.694Z,101640.20
2023-09-27T05:27:18.016Z,101638.18
2023-09-27T05:29:47.048Z,101638.95
2023-09-27T05:32:15.289Z,101639.35
2023-09-27T05:34:44.455Z,101646.67
2023-09-27T05:37:12.883Z,101651.98
2023-09-27T05:39:41.219Z,101654.25
2023-09-27T05:42:12.862Z,101656.13
2023-09-27T05:44:42.160Z,101654.77
2023-09-27T05:47:11.756Z,101659.14
2023-09-27T05:49:41.526Z,101654.35
2023-09-27T05:52:14.059Z,101649.46
2023-09-27T05:54:42.513Z,101647.76
2023-09-27T05:57:10.919Z,101647.70
2023-09-27T05:59:44.013Z,101645.83
2023-09-27T06:02:19.286Z,101648.64
2023-09-27T06:04:50.864Z,101647.52
2023-09-27T06:07:19.756Z,101651.92
2023-09-27T06:09:48.072Z,101650.64
2023-09-27T06:12:18.048Z,101651.59
2023-09-27T06:14:47.393Z,101653.44
2023-09-27T06:17:17.777Z,101651.50
2023-09-27T06:19:46.885Z,101652.17
2023-09-27T06:22:16.877Z,101657.07
2023-09-27T06:24:47.360Z,101660.98
2023-09-27T06:27:18.625Z,101661.10
2023-09-27T06:29:49.381Z,101662.38
2023-09-27T06:32:18.346Z,101661.30
2023-09-27T06:34:46.865Z,101663.84
2023-09-27T06:37:15.650Z,101667.31
2023-09-27T06:39:44.089Z,101668.63
2023-09-27T06:42:14.298Z,101670.13
2023-09-27T06:44:42.951Z,101676.10
2023-09-27T06:47:11.369Z,101679.45
2023-09-27T06:49:40.222Z,101683.88
2023-09-27T06:52:09.066Z,101685.20
2023-09-27T06:54:37.465Z,101687.39
2023-09-27T06:57:05.873Z,101688.06
2023-09-27T06:59:34.834Z,101691.38
2023-09-27T07:02:04.127Z,101692.14
2023-09-27T07:04:37.405Z,101695.16
2023-09-27T07:07:06.209Z,101698.22
2023-09-27T07:09:34.821Z,101700.77
2023-09-27T07:12:04.174Z,101706.02
2023-09-27T07:14:33.886Z,101714.81
2023-09-27T07:17:06.037Z,101718.84
2023-09-27T07:19:34.504Z,101716.95
2023-09-27T07:22:09.559Z,101717.36
2023-09-27T07:24:38.235Z,101723.33
2023-09-27T07:27:07.271Z,101727.03
2023-09-27T07:29:36.143Z,101731.27
2023-09-27T07:32:09.312Z,101736.71
2023-09-27T07:34:39.147Z,101740.44
2023-09-27T07:37:07.695Z,101737.02
2023-09-27T07:39:36.204Z,101731.75
2023-09-27T07:42:05.005Z,101728.84
2023-09-27T07:44:33.912Z,101722.77
2023-09-27T07:47:02.350Z,101719.98
2023-09-27T07:49:32.127Z,101714.70
2023-09-27T07:52:00.552Z,101710.13
2023-09-27T07:54:29.176Z,101714.06
2023-09-27T07:57:00.541Z,101722.89
2023-09-27T07:59:29.825Z,101724.50
2023-09-27T08:01:59.094Z,101722.91
2023-09-27T08:04:28.502Z,101723.02
2023-09-27T08:06:57.099Z,101726.23
2023-09-27T08:09:39.214Z,101729.52
2023-09-27T08:12:10.445Z,101724.23
2023-09-27T08:14:40.289Z,101723.45
2023-09-27T08:17:09.298Z,101722.47
2023-09-27T08:19:39.854Z,101722.38
2023-09-27T08:22:13.258Z,101721.77
2023-09-27T08:24:42.646Z,101725.31
2023-09-27T08:27:11.824Z,101720.14
2023-09-27T08:29:42.521Z,101719.77
2023-09-27T08:32:12.919Z,101723.07
2023-09-27T08:34:42.131Z,101726.75
2023-09-27T08:37:12.951Z,101730.70
2023-09-27T08:39:41.624Z,101727.20
2023-09-27T08:42:10.454Z,101725.80
2023-09-27T08:44:39.629Z,101725.61
2023-09-27T08:47:08.993Z,101729.45
2023-09-27T08:49:37.846Z,101732.46
2023-09-27T08:52:10.488Z,101729.33
2023-09-27T08:54:39.369Z,101727.72
2023-09-27T08:57:08.080Z,101720.65
2023-09-27T08:59:36.686Z,101720.23
2023-09-27T09:02:08.576Z,101716.64
2023-09-27T09:04:39.622Z,101711.50
2023-09-27T09:07:09.454Z,101710.23
2023-09-27T09:09:38.023Z,101707.83
2023-09-27T09:12:11.131Z,101706.16
2023-09-27T09:14:44.877Z,101698.35
2023-09-27T09:17:19.420Z,101699.45
2023-09-27T09:20:37.450Z,101699.84
2023-09-27T09:23:14.097Z,101696.77
2023-09-27T09:25:48.250Z,101692.40
2023-09-27T09:28:19.819Z,101692.75
2023-09-27T09:30:49.349Z,101689.52
2023-09-27T09:33:19.746Z,101692.52
2023-09-27T09:35:48.870Z,101690.23
2023-09-27T09:38:27.578Z,101690.23
2023-09-27T09:40:58.316Z,101686.09
2023-09-27T09:43:38.594Z,101690.95
2023-09-27T09:46:10.074Z,101689.16
2023-09-27T09:48:42.744Z,101695.07
2023-09-27T09:51:12.970Z,101692.44
2023-09-27T09:53:44.364Z,101689.84
2023-09-27T09:58:59.309Z,101686.83
2023-09-27T10:01:33.638Z,101685.10
2023-09-27T10:04:05.973Z,101681.20
2023-09-27T10:06:47.857Z,101684.85
2023-09-27T10:09:19.011Z,101676.29
2023-09-27T10:11:49.050Z,101673.87
2023-09-27T10:14:20.164Z,101667.81
2023-09-27T10:16:50.885Z,101665.01
2023-09-27T10:19:30.793Z,101665.94
2023-09-27T10:22:06.221Z,101668.06
2023-09-27T10:24:43.343Z,101667.45
2023-09-27T10:27:12.932Z,101664.20
2023-09-27T10:30:02.224Z,101657.88
2023-09-27T10:32:32.736Z,101656.11
2023-09-27T10:35:18.747Z,101656.71
2023-09-27T10:37:59.844Z,101659.66
2023-09-27T10:40:28.829Z,101659.70
2023-09-27T10:42:57.700Z,101659.91
2023-09-27T10:45:27.734Z,101656.52
2023-09-27T10:48:00.259Z,101657.34
2023-09-27T10:50:31.479Z,101651.59
2023-09-27T10:53:01.056Z,101648.79
2023-09-27T10:55:38.484Z,101644.85
2023-09-27T10:58:07.680Z,101639.80
2023-09-27T11:00:36.867Z,101637.79
2023-09-27T11:03:18.111Z,101633.86
2023-09-27T11:05:47.190Z,101634.02
2023-09-27T11:08:24.483Z,101627.59
2023-09-27T11:10:58.245Z,101628.77
2023-09-27T11:13:27.939Z,101622.39
2023-09-27T11:16:08.421Z,101622.06
2023-09-27T11:18:38.100Z,101617.42
2023-09-27T11:21:17.512Z,101613.36
2023-09-27T11:24:01.324Z,101611.83
2023-09-27T11:26:33.935Z,101605.04
2023-09-27T11:29:07.568Z,101597.56
2023-09-27T11:31:40.420Z,101593.73
2023-09-27T11:34:17.616Z,101587.27
2023-09-27T11:37:00.053Z,101586.10
2023-09-27T11:39:51.448Z,101580.27
2023-09-27T11:42:24.413Z,101580.54
2023-09-27T11:45:07.201Z,101579.34
2023-09-27T11:47:54.478Z,101572.08
2023-09-27T11:50:23.898Z,101569.88
2023-09-27T11:52:52.824Z,101566.71
2023-09-27T11:55:21.393Z,101560.12
2023-09-27T11:57:50.871Z,101561.12
2023-09-27T12:00:20.723Z,101560.66
2023-09-27T12:02:57.032Z,101552.91
2023-09-27T12:05:28.368Z,101546.96
2023-09-27T12:07:58.620Z,101545.16
2023-09-27T12:10:27.020Z,101544.14
2023-09-27T12:12:57.075Z,101539.88
2023-09-27T12:15:25.711Z,101534.33
2023-09-27T12:17:55.914Z,101532.52
2023-09-27T12:20:38.457Z,101531.49
2023-09-27T12:23:11.584Z,101526.10
2023-09-27T12:25:40.796Z,101521.14
2023-09-27T12:28:09.250Z,101520.79
2023-09-27T12:30:38.627Z,101515.89
2023-09-27T12:33:08.035Z,101515.39
2023-09-27T12:35:53.707Z,101510.66
2023-09-27T12:38:26.242Z,101516.71
2023-09-27T12:40:56.395Z,101517.38
2023-09-27T12:43:25.494Z,101515.05
2023-09-27T12:45:55.159Z,101516.24
2023-09-27T12:48:25.683Z,101516.45
2023-09-27T12:50:54.353Z,101515.75
2023-09-27T12:53:23.227Z,101509.54
2023-09-27T12:55:51.869Z,101508.63
2023-09-27T12:58:20.882Z,101499.60
2023-09-27T13:00:49.591Z,101496.30
2023-09-27T13:03:20.684Z,101492.06
2023-09-27T13:05:49.796Z,101490.15
2023-09-27T13:08:18.431Z,101487.27
2023-09-27T13:10:46.714Z,101486.40
2023-09-27T13:13:16.558Z,101480.99
2023-09-27T13:15:45.050Z,101479.77
2023-09-27T13:18:16.396Z,101481.33
2023-09-27T13:20:45.177Z,101477.14
2023-09-27T13:23:14.050Z,101476.41
2023-09-27T13:28:23.313Z,101470.98
2023-09-27T13:30:53.651Z,101473.36
2023-09-27T13:33:22.778Z,101470.91
2023-09-27T13:35:51.419Z,101470.83
2023-09-27T13:38:21.032Z,101465.14
2023-09-27T13:40:51.527Z,101457.17
2023-09-27T13:43:21.326Z,101456.09
2023-09-27T13:45:50.021Z,101453.23
2023-09-27T13:48:20.450Z,101451.08
2023-09-27T13:50:50.718Z,101450.16
2023-09-27T13:53:19.416Z,101451.71
2023-09-27T13:55:52.518Z,101445.88
2023-09-27T13:58:20.832Z,101439.93
2023-09-27T14:00:49.030Z,101439.18
2023-09-27T14:03:18.931Z,101440.73
2023-09-27T14:05:49.208Z,101437.48
2023-09-27T14:08:18.004Z,101431.95
2023-09-27T14:10:48.383Z,101433.13
2023-09-27T14:13:17.558Z,101429.09
2023-09-27T14:15:48.429Z,101428.01
2023-09-27T14:18:18.299Z,101422.70
2023-09-27T14:20:50.416Z,101421.45
2023-09-27T14:23:19.594Z,101421.49
2023-09-27T14:25:48.045Z,101420.57
2023-09-27T14:28:27.082Z,101422.86
2023-09-27T14:30:56.923Z,101425.98
2023-09-27T14:33:28.730Z,101424.12
2023-09-27T14:35:58.054Z,101426.20
2023-09-27T14:38:30.314Z,101425.09
2023-09-27T14:40:59.626Z,101420.89
2023-09-27T14:43:32.294Z,101421.50
2023-09-27T14:46:01.970Z,101419.02
2023-09-27T14:48:31.423Z,101420.98
2023-09-27T14:51:00.137Z,101417.80
2023-09-27T14:53:29.602Z,101418.68
2023-09-27T14:56:08.557Z,101416.66
2023-09-27T14:58:37.351Z,101418.92
2023-09-27T15:01:06.519Z,101418.66
2023-09-27T15:03:35.637Z,101420.02
2023-09-27T15:06:05.135Z,101420.17
2023-09-27T15:08:35.352Z,101418.94
2023-09-27T15:11:06.584Z,101419.66
2023-09-27T15:13:35.862Z,101424.63
2023-09-27T15:16:07.929Z,101424.23
2023-09-27T15:18:37.090Z,101427.67
2023-09-27T15:21:05.962Z,101428.61
2023-09-27T15:23:35.321Z,101425.02
2023-09-27T15:29:24.504Z,101429.59
2023-09-27T15:31:53.845Z,101432.66
2023-09-27T15:34:26.486Z,101431.54
2023-09-27T15:36:56.215Z,101434.29
2023-09-27T15:39:25.923Z,101429.99
2023-09-27T15:41:55.044Z,101431.95
2023-09-27T15:44:23.938Z,101431.35
2023-09-27T15:46:52.966Z,101428.02
2023-09-27T15:49:21.456Z,101434.94
2023-09-27T15:51:50.733Z,101434.50
2023-09-27T15:54:19.762Z,101433.67
2023-09-27T15:56:48.451Z,101433.71
2023-09-27T15:59:19.288Z,101433.77
2023-09-27T16:01:48.261Z,101427.90
2023-09-27T16:04:16.762Z,101430.02
2023-09-27T16:06:46.106Z,101429.56
2023-09-27T16:09:16.695Z,101429.90
2023-09-27T16:11:45.828Z,101433.24
